createdAt,value
2022-08-26T00:02:19.371Z,14.00
2022-08-26T00:04:48.628Z,13.50
2022-08-26T00:07:16.237Z,12.70
2022-08-26T00:09:47.310Z,13.63
2022-08-26T00:12:15.326Z,13.57
2022-08-26T00:14:42.910Z,12.77
2022-08-26T00:17:10.566Z,14.18
2022-08-26T00:19:38.501Z,13.45
2022-08-26T00:22:12.321Z,13.45
2022-08-26T00:24:39.856Z,12.75
2022-08-26T00:27:15.587Z,13.73
2022-08-26T00:29:43.268Z,14.55
2022-08-26T00:32:12.647Z,14.20
2022-08-26T00:34:41.954Z,14.30
2022-08-26T00:37:13.410Z,14.70
2022-08-26T00:42:14.043Z,13.70
2022-08-26T00:44:41.579Z,15.10
2022-08-26T00:47:31.052Z,15.05
2022-08-26T00:50:02.411Z,14.38
2022-08-26T00:52:30.969Z,14.50
2022-08-26T00:55:04.998Z,15.38
2022-08-26T00:57:34.434Z,13.23
2022-08-26T01:00:07.493Z,13.52
2022-08-26T01:02:36.286Z,14.77
2022-08-26T01:05:06.017Z,14.45
2022-08-26T01:07:34.809Z,14.85
2022-08-26T01:10:05.374Z,14.80
2022-08-26T01:12:40.139Z,13.95
2022-08-26T01:15:11.278Z,14.55
2022-08-26T01:17:39.505Z,15.55
2022-08-26T01:20:19.173Z,15.27
2022-08-26T01:22:50.479Z,14.50
2022-08-26T01:25:21.304Z,14.68
2022-08-26T01:27:49.665Z,14.68
2022-08-26T01:30:19.214Z,14.13
2022-08-26T01:32:49.075Z,14.35
2022-08-26T01:35:16.684Z,14.68
2022-08-26T01:37:48.186Z,13.63
2022-08-26T01:40:21.989Z,14.40
2022-08-26T01:42:50.358Z,14.77
2022-08-26T01:45:30.864Z,14.18
2022-08-26T01:48:01.263Z,13.73
2022-08-26T01:50:33.926Z,14.45
2022-08-26T01:53:06.861Z,14.85
2022-08-26T01:55:37.468Z,14.52
2022-08-26T01:58:08.357Z,14.95
2022-08-26T02:00:37.154Z,14.77
2022-08-26T02:03:17.502Z,15.25
2022-08-26T02:05:51.392Z,14.30
2022-08-26T02:08:24.914Z,15.73
2022-08-26T02:10:54.711Z,14.70
2022-08-26T02:13:25.541Z,15.13
2022-08-26T02:15:54.264Z,15.57
2022-08-26T02:18:22.867Z,15.63
2022-08-26T02:20:56.450Z,15.07
2022-08-26T02:23:25.043Z,15.95
2022-08-26T02:26:19.382Z,15.45
2022-08-26T02:29:05.098Z,14.73
2022-08-26T02:31:35.538Z,14.43
2022-08-26T02:34:15.688Z,14.43
2022-08-26T02:36:43.515Z,15.02
2022-08-26T02:39:16.956Z,15.73
2022-08-26T02:41:50.294Z,15.60
2022-08-26T02:44:18.878Z,14.82
2022-08-26T02:46:47.220Z,14.07
2022-08-26T02:49:17.045Z,15.90
2022-08-26T02:51:44.837Z,14.40
2022-08-26T02:54:12.955Z,15.05
2022-08-26T02:56:41.040Z,14.80
2022-08-26T02:59:09.667Z,16.05
2022-08-26T03:01:37.253Z,15.18
2022-08-26T03:04:07.564Z,15.25
2022-08-26T03:06:43.907Z,16.23
2022-08-26T03:09:21.283Z,14.52
2022-08-26T03:11:52.050Z,15.68
2022-08-26T03:14:20.690Z,15.40
2022-08-26T03:16:50.987Z,16.10
2022-08-26T03:19:18.943Z,14.77
2022-08-26T03:21:47.195Z,16.85
2022-08-26T03:24:17.636Z,17.48
2022-08-26T03:26:52.131Z,16.27
2022-08-26T03:29:40.270Z,15.15
2022-08-26T03:32:08.962Z,16.63
2022-08-26T03:34:37.317Z,15.18
2022-08-26T03:37:06.224Z,15.60
2022-08-26T03:39:33.959Z,15.73
2022-08-26T03:42:01.903Z,15.63
2022-08-26T03:44:29.417Z,15.88
2022-08-26T03:46:59.662Z,16.48
2022-08-26T03:49:36.979Z,16.27
2022-08-26T03:52:05.339Z,15.18
2022-08-26T03:54:33.788Z,14.65
2022-08-26T03:57:01.514Z,15.95
2022-08-26T03:59:29.014Z,15.82
2022-08-26T04:01:56.667Z,16.27
2022-08-26T04:04:26.634Z,17.25
2022-08-26T04:06:58.922Z,16.08
2022-08-26T04:09:27.695Z,16.73
2022-08-26T04:11:58.784Z,16.30
2022-08-26T04:14:27.778Z,17.13
2022-08-26T04:16:56.331Z,16.85
2022-08-26T04:19:25.558Z,15.63
2022-08-26T04:21:53.995Z,16.90
2022-08-26T04:24:24.176Z,15.82
2022-08-26T04:26:57.990Z,18.10
2022-08-26T04:29:26.956Z,15.88
2022-08-26T04:31:56.006Z,16.23
2022-08-26T04:34:27.235Z,16.83
2022-08-26T04:36:57.902Z,17.40
2022-08-26T04:39:27.636Z,16.15
2022-08-26T04:41:57.916Z,16.45
2022-08-26T04:44:29.823Z,15.73
2022-08-26T04:46:58.945Z,15.10
2022-08-26T04:49:27.678Z,15.05
2022-08-26T04:51:55.382Z,14.15
2022-08-26T04:54:25.272Z,14.43
2022-08-26T04:56:53.005Z,13.77
2022-08-26T04:59:20.590Z,15.68
2022-08-26T05:01:54.125Z,15.07
2022-08-26T05:04:28.769Z,14.90
2022-08-26T05:07:02.478Z,15.57
2022-08-26T05:09:37.448Z,15.55
2022-08-26T05:12:17.197Z,14.40
2022-08-26T05:15:00.355Z,13.90
2022-08-26T05:17:31.614Z,16.05
2022-08-26T05:20:00.798Z,15.35
2022-08-26T05:22:29.104Z,15.43
2022-08-26T05:24:56.802Z,14.35
2022-08-26T05:27:25.065Z,14.75
2022-08-26T05:29:58.940Z,13.80
2022-08-26T05:32:27.964Z,15.52
2022-08-26T05:34:57.530Z,17.20
2022-08-26T05:37:27.023Z,15.68
2022-08-26T05:39:55.707Z,13.20
2022-08-26T05:42:25.049Z,14.25
2022-08-26T05:44:55.956Z,14.38
2022-08-26T05:47:25.397Z,12.45
2022-08-26T05:49:54.122Z,13.05
2022-08-26T05:52:24.583Z,11.70
2022-08-26T05:54:53.970Z,13.75
2022-08-26T05:57:23.121Z,10.93
2022-08-26T05:59:51.861Z,10.80
2022-08-26T06:02:20.349Z,9.90
2022-08-26T06:04:48.250Z,9.82
2022-08-26T06:07:17.055Z,10.02
2022-08-26T06:09:46.115Z,10.70
2022-08-26T06:12:13.671Z,9.98
2022-08-26T06:14:42.651Z,8.85
2022-08-26T06:17:13.219Z,8.85
2022-08-26T06:19:41.366Z,8.40
2022-08-26T06:22:31.758Z,7.13
2022-08-26T06:25:17.701Z,6.88
2022-08-26T06:27:45.349Z,6.88
2022-08-26T06:30:13.252Z,7.63
2022-08-26T06:32:41.079Z,5.97
2022-08-26T06:35:12.422Z,6.55
2022-08-26T06:37:41.170Z,7.45
2022-08-26T06:40:09.552Z,8.00
2022-08-26T06:42:39.337Z,8.13
2022-08-26T06:45:07.433Z,8.13
2022-08-26T06:47:36.370Z,7.85
2022-08-26T06:50:04.065Z,7.70
2022-08-26T06:52:37.615Z,7.63
2022-08-26T06:55:18.215Z,7.53
2022-08-26T06:57:46.075Z,8.60
2022-08-26T07:00:15.476Z,6.60
2022-08-26T07:02:46.868Z,7.38
2022-08-26T07:05:14.647Z,7.07
2022-08-26T07:07:42.152Z,6.15
2022-08-26T07:10:10.840Z,6.53
2022-08-26T07:12:39.006Z,6.15
2022-08-26T07:15:12.538Z,6.30
2022-08-26T07:17:40.220Z,6.15
2022-08-26T07:20:09.362Z,6.15
2022-08-26T07:22:37.263Z,7.05
2022-08-26T07:25:09.497Z,7.72
2022-08-26T07:27:38.966Z,6.55
2022-08-26T07:30:07.966Z,6.53
2022-08-26T07:32:35.550Z,6.50
2022-08-26T07:35:03.611Z,7.40
2022-08-26T07:37:35.415Z,6.93
2022-08-26T07:40:06.425Z,8.63
2022-08-26T07:42:34.543Z,6.40
2022-08-26T07:45:02.340Z,5.78
2022-08-26T07:47:32.838Z,5.55
2022-08-26T07:50:02.860Z,5.28
2022-08-26T07:52:34.494Z,5.85
2022-08-26T07:55:03.025Z,5.32
2022-08-26T07:57:31.386Z,5.68
2022-08-26T07:59:59.577Z,5.97
2022-08-26T08:02:28.876Z,5.20
2022-08-26T08:04:58.026Z,5.55
2022-08-26T08:07:44.317Z,5.00
2022-08-26T08:10:16.554Z,4.78
2022-08-26T08:12:45.086Z,5.95
2022-08-26T08:15:14.230Z,5.78
2022-08-26T08:17:46.353Z,5.32
2022-08-26T08:20:19.431Z,6.15
2022-08-26T08:22:47.748Z,6.15
2022-08-26T08:25:15.336Z,5.55
2022-08-26T08:27:45.283Z,5.60
2022-08-26T08:30:14.080Z,5.60
2022-08-26T08:32:43.809Z,6.57
2022-08-26T08:35:15.311Z,5.68
2022-08-26T08:37:46.213Z,6.22
2022-08-26T08:40:19.161Z,6.57
2022-08-26T08:42:54.861Z,5.63
2022-08-26T08:45:35.899Z,5.65
2022-08-26T08:48:27.634Z,5.25
2022-08-26T08:51:18.163Z,5.35
2022-08-26T08:53:49.689Z,5.40
2022-08-26T08:56:31.510Z,5.30
2022-08-26T08:59:20.378Z,5.35
2022-08-26T09:02:06.518Z,5.25
2022-08-26T09:04:45.845Z,5.40
2022-08-26T09:07:36.974Z,5.30
2022-08-26T09:10:23.390Z,5.20
2022-08-26T09:12:52.699Z,5.18
2022-08-26T09:15:57.978Z,5.75
2022-08-26T09:18:50.711Z,5.32
2022-08-26T09:21:20.229Z,5.55
2022-08-26T09:23:52.382Z,5.40
2022-08-26T09:26:41.018Z,5.65
2022-08-26T09:29:15.603Z,4.97
2022-08-26T09:31:43.263Z,5.38
2022-08-26T09:34:17.473Z,5.25
2022-08-26T09:36:55.788Z,5.47
2022-08-26T09:39:37.882Z,5.00
2022-08-26T09:42:12.371Z,5.80
2022-08-26T09:44:59.651Z,5.82
2022-08-26T09:47:31.647Z,5.68
2022-08-26T09:50:12.370Z,5.25
2022-08-26T09:52:42.690Z,5.38
2022-08-26T09:55:13.992Z,5.65
2022-08-26T09:57:46.099Z,5.75
2022-08-26T10:00:40.640Z,5.30
2022-08-26T10:03:15.530Z,5.00
2022-08-26T10:05:55.119Z,5.28
2022-08-26T10:08:38.974Z,5.07
2022-08-26T10:11:30.616Z,4.93
2022-08-26T10:14:08.108Z,5.05
2022-08-26T10:17:02.416Z,5.40
2022-08-26T10:19:55.568Z,5.22
2022-08-26T10:22:54.626Z,5.93
2022-08-26T10:25:28.548Z,5.38
2022-08-26T10:28:02.448Z,5.30
2022-08-26T10:30:40.029Z,5.22
2022-08-26T10:33:18.623Z,5.25
2022-08-26T10:35:59.987Z,5.18
2022-08-26T10:38:37.647Z,5.47
2022-08-26T10:41:15.863Z,5.20
2022-08-26T10:43:53.206Z,5.03
2022-08-26T10:46:27.190Z,4.60
2022-08-26T10:49:08.604Z,4.63
2022-08-26T10:52:12.473Z,4.45
2022-08-26T10:54:48.401Z,5.10
2022-08-26T10:57:33.252Z,4.47
2022-08-26T11:00:27.546Z,4.30
2022-08-26T11:03:22.465Z,4.67
2022-08-26T11:06:16.705Z,4.75
2022-08-26T11:08:50.086Z,4.38
2022-08-26T11:11:50.890Z,4.78
2022-08-26T11:14:29.332Z,4.75
2022-08-26T11:16:59.842Z,4.20
2022-08-26T11:19:59.347Z,4.60
2022-08-26T11:22:38.160Z,4.40
2022-08-26T11:25:19.762Z,4.30
2022-08-26T11:27:56.936Z,4.68
2022-08-26T11:30:25.276Z,4.82
2022-08-26T11:32:57.365Z,4.65
2022-08-26T11:35:24.865Z,4.68
2022-08-26T11:37:59.192Z,4.43
2022-08-26T11:40:29.909Z,4.70
2022-08-26T11:43:03.076Z,4.60
2022-08-26T11:45:59.827Z,4.60
2022-08-26T11:48:28.322Z,4.90
2022-08-26T11:51:06.585Z,4.30
2022-08-26T11:53:38.927Z,4.75
2022-08-26T11:56:28.774Z,5.55
2022-08-26T11:59:02.994Z,4.70
2022-08-26T12:01:36.542Z,4.88
2022-08-26T12:04:07.740Z,4.75
2022-08-26T12:06:48.059Z,4.80
2022-08-26T12:09:34.632Z,4.25
2022-08-26T12:12:23.908Z,4.38
2022-08-26T12:15:19.847Z,4.38
2022-08-26T12:17:54.277Z,4.22
2022-08-26T12:20:31.086Z,4.70
2022-08-26T12:23:00.858Z,5.00
2022-08-26T12:25:36.041Z,6.45
2022-08-26T12:28:06.167Z,5.18
2022-08-26T12:30:33.898Z,6.07
2022-08-26T12:33:22.152Z,4.82
2022-08-26T12:35:56.261Z,4.40
2022-08-26T12:38:26.787Z,4.55
2022-08-26T12:40:54.838Z,4.47
2022-08-26T12:43:46.024Z,4.68
2022-08-26T12:46:18.141Z,4.68
2022-08-26T12:48:49.729Z,4.45
2022-08-26T12:51:30.241Z,4.55
2022-08-26T12:53:59.238Z,4.63
2022-08-26T12:56:29.464Z,4.38
2022-08-26T12:59:25.157Z,4.47
2022-08-26T13:01:53.599Z,4.50
2022-08-26T13:04:40.655Z,4.90
2022-08-26T13:07:14.320Z,3.90
2022-08-26T13:09:43.952Z,4.60
2022-08-26T13:12:11.776Z,4.70
2022-08-26T13:14:40.573Z,4.90
2022-08-26T13:17:08.158Z,4.35
2022-08-26T13:19:35.895Z,4.45
2022-08-26T13:22:05.262Z,4.88
2022-08-26T13:24:39.889Z,5.05
2022-08-26T13:27:10.127Z,4.22
2022-08-26T13:29:37.868Z,5.05
2022-08-26T13:32:06.985Z,4.78
2022-08-26T13:34:36.911Z,4.90
2022-08-26T13:37:07.463Z,5.38
2022-08-26T13:39:35.118Z,4.55
2022-08-26T13:42:02.587Z,5.63
2022-08-26T13:44:30.134Z,5.00
2022-08-26T13:46:57.581Z,5.18
2022-08-26T13:49:34.306Z,5.07
2022-08-26T13:52:04.256Z,5.10
2022-08-26T13:54:31.730Z,5.70
2022-08-26T13:57:02.423Z,5.78
2022-08-26T13:59:30.016Z,7.53
2022-08-26T14:01:58.825Z,7.03
2022-08-26T14:04:27.523Z,6.03
2022-08-26T14:06:55.122Z,5.47
2022-08-26T14:09:22.652Z,5.80
2022-08-26T14:11:54.058Z,5.57
2022-08-26T14:14:23.177Z,5.40
2022-08-26T14:16:58.947Z,6.22
2022-08-26T14:19:30.080Z,5.70
2022-08-26T14:22:00.789Z,6.25
2022-08-26T14:24:29.314Z,6.57
2022-08-26T14:26:56.793Z,6.35
2022-08-26T14:29:24.476Z,6.65
2022-08-26T14:31:52.175Z,5.85
2022-08-26T14:34:19.837Z,6.00
2022-08-26T14:36:47.317Z,6.47
2022-08-26T14:39:14.906Z,5.63
2022-08-26T14:41:53.987Z,6.03
2022-08-26T14:44:26.343Z,5.88
2022-08-26T14:46:54.800Z,6.43
2022-08-26T14:49:24.042Z,6.05
2022-08-26T14:51:51.613Z,6.05
2022-08-26T14:54:20.735Z,6.25
2022-08-26T14:56:50.249Z,6.03
2022-08-26T14:59:24.637Z,6.05
2022-08-26T15:01:52.937Z,5.90
2022-08-26T15:04:20.926Z,6.30
2022-08-26T15:06:48.777Z,6.00
2022-08-26T15:09:16.545Z,6.78
2022-08-26T15:11:44.065Z,6.80
2022-08-26T15:14:19.171Z,6.07
2022-08-26T15:16:50.377Z,6.43
2022-08-26T15:19:18.911Z,6.22
2022-08-26T15:21:47.543Z,5.90
2022-08-26T15:24:21.320Z,6.22
2022-08-26T15:26:49.683Z,5.78
2022-08-26T15:29:26.659Z,6.50
2022-08-26T15:31:55.270Z,5.80
2022-08-26T15:34:30.373Z,5.55
2022-08-26T15:36:58.105Z,6.65
2022-08-26T15:39:25.610Z,6.40
2022-08-26T15:41:53.231Z,7.03
2022-08-26T15:44:20.818Z,6.60
2022-08-26T15:46:49.893Z,6.55
2022-08-26T15:49:18.845Z,6.22
2022-08-26T15:51:48.151Z,6.63
2022-08-26T15:54:17.535Z,6.35
2022-08-26T15:56:45.773Z,8.43
2022-08-26T15:59:15.844Z,8.73
2022-08-26T16:01:44.172Z,7.82
2022-08-26T16:04:12.555Z,7.65
2022-08-26T16:06:41.254Z,6.47
2022-08-26T16:09:11.450Z,7.30
2022-08-26T16:11:39.237Z,6.63
2022-08-26T16:14:07.264Z,7.35
2022-08-26T16:16:39.453Z,6.95
2022-08-26T16:19:08.245Z,6.70
2022-08-26T16:21:36.250Z,6.63
2022-08-26T16:24:04.591Z,7.00
2022-08-26T16:26:34.527Z,6.90
2022-08-26T16:29:05.305Z,8.45
2022-08-26T16:31:33.101Z,6.45
2022-08-26T16:34:00.947Z,7.18
2022-08-26T16:36:28.465Z,7.82
2022-08-26T16:38:56.878Z,7.30
2022-08-26T16:41:27.033Z,7.57
2022-08-26T16:43:58.105Z,7.13
2022-08-26T16:46:26.629Z,7.20
2022-08-26T16:48:56.071Z,7.13
2022-08-26T16:51:27.209Z,7.45
2022-08-26T16:53:56.955Z,6.90
2022-08-26T16:56:33.423Z,6.93
2022-08-26T16:59:04.347Z,6.20
2022-08-26T17:01:32.375Z,6.90
2022-08-26T17:04:00.071Z,7.07
2022-08-26T17:06:27.688Z,6.65
2022-08-26T17:08:55.249Z,7.00
2022-08-26T17:11:22.838Z,6.68
2022-08-26T17:13:50.406Z,6.88
2022-08-26T17:16:18.042Z,6.85
2022-08-26T17:18:45.733Z,6.97
2022-08-26T17:21:14.354Z,7.35
2022-08-26T17:23:43.358Z,7.25
2022-08-26T17:26:12.454Z,8.00
2022-08-26T17:28:42.925Z,7.90
2022-08-26T17:31:12.507Z,7.63
2022-08-26T17:33:40.534Z,9.13
2022-08-26T17:36:10.081Z,8.88
2022-08-26T17:38:38.272Z,7.40
2022-08-26T17:41:10.858Z,7.55
2022-08-26T17:43:39.278Z,8.20
2022-08-26T17:46:08.593Z,8.07
2022-08-26T17:48:38.177Z,8.13
2022-08-26T17:51:27.197Z,7.75
2022-08-26T17:53:55.154Z,8.05
2022-08-26T17:56:27.179Z,7.32
2022-08-26T17:58:58.037Z,7.78
2022-08-26T18:01:32.329Z,7.85
2022-08-26T18:04:01.019Z,8.13
2022-08-26T18:06:30.483Z,8.18
2022-08-26T18:08:59.543Z,8.23
2022-08-26T18:11:28.093Z,7.90
2022-08-26T18:13:55.704Z,8.05
2022-08-26T18:16:27.534Z,9.93
2022-08-26T18:18:55.686Z,9.52
2022-08-26T18:21:25.730Z,8.57
2022-08-26T18:23:56.586Z,9.55
2022-08-26T18:26:31.206Z,9.45
2022-08-26T18:28:59.567Z,9.80
2022-08-26T18:31:27.599Z,9.57
2022-08-26T18:33:55.382Z,9.45
2022-08-26T18:36:28.945Z,9.10
2022-08-26T18:38:57.574Z,9.73
2022-08-26T18:41:28.813Z,10.30
2022-08-26T18:43:57.030Z,10.60
2022-08-26T18:46:28.985Z,10.43
2022-08-26T18:48:57.748Z,10.05
2022-08-26T18:51:31.635Z,10.35
2022-08-26T18:54:00.965Z,10.00
2022-08-26T18:56:29.176Z,9.90
2022-08-26T18:58:56.767Z,10.10
2022-08-26T19:01:27.382Z,10.27
2022-08-26T19:03:57.498Z,9.85
2022-08-26T19:06:26.847Z,10.40
2022-08-26T19:08:55.727Z,10.80
2022-08-26T19:11:32.295Z,10.90
2022-08-26T19:14:13.724Z,10.93
2022-08-26T19:16:47.543Z,10.88
2022-08-26T19:19:16.492Z,10.25
2022-08-26T19:21:44.250Z,10.38
2022-08-26T19:24:15.586Z,10.30
2022-08-26T19:26:48.241Z,10.40
2022-08-26T19:31:47.914Z,10.38
2022-08-26T19:34:20.749Z,10.85
2022-08-26T19:36:49.807Z,11.13
2022-08-26T19:39:17.379Z,11.50
2022-08-26T19:41:45.110Z,11.38
2022-08-26T19:44:37.248Z,11.02
2022-08-26T19:47:06.699Z,11.02
2022-08-26T19:49:35.054Z,12.00
2022-08-26T19:52:03.215Z,11.70
2022-08-26T19:54:30.982Z,10.88
2022-08-26T19:56:58.539Z,12.77
2022-08-26T19:59:26.120Z,13.27
2022-08-26T20:02:01.476Z,12.10
2022-08-26T20:04:32.990Z,12.48
2022-08-26T20:07:02.223Z,13.18
2022-08-26T20:09:30.658Z,12.40
2022-08-26T20:11:58.531Z,12.75
2022-08-26T20:14:27.978Z,12.63
2022-08-26T20:16:56.038Z,12.00
2022-08-26T20:19:44.819Z,13.45
2022-08-26T20:22:12.997Z,12.30
2022-08-26T20:24:41.079Z,12.20
2022-08-26T20:27:09.732Z,12.38
2022-08-26T20:29:40.534Z,13.63
2022-08-26T20:32:08.269Z,14.10
2022-08-26T20:34:36.705Z,13.98
2022-08-26T20:37:05.139Z,14.68
2022-08-26T20:39:32.884Z,13.55
2022-08-26T20:42:04.412Z,14.35
2022-08-26T20:44:34.228Z,14.18
2022-08-26T20:47:01.968Z,14.93
2022-08-26T20:49:32.730Z,14.68
2022-08-26T20:52:07.908Z,14.50
2022-08-26T20:54:35.361Z,15.40
2022-08-26T20:57:03.460Z,15.32
2022-08-26T20:59:36.550Z,14.52
2022-08-26T21:02:04.243Z,14.55
2022-08-26T21:04:31.936Z,13.75
2022-08-26T21:06:59.510Z,15.00
2022-08-26T21:09:28.107Z,14.35
2022-08-26T21:11:57.400Z,15.95
2022-08-26T21:14:27.432Z,15.20
2022-08-26T21:17:01.103Z,14.05
2022-08-26T21:19:28.872Z,13.93
2022-08-26T21:21:56.329Z,14.55
2022-08-26T21:24:23.813Z,15.02
2022-08-26T21:26:51.420Z,13.88
2022-08-26T21:29:19.108Z,14.05
2022-08-26T21:31:47.049Z,14.65
2022-08-26T21:34:17.978Z,14.63
2022-08-26T21:36:49.043Z,16.45
2022-08-26T21:39:17.204Z,13.90
2022-08-26T21:41:45.934Z,13.50
2022-08-26T21:44:15.690Z,13.65
2022-08-26T21:46:44.728Z,13.32
2022-08-26T21:49:15.997Z,13.93
2022-08-26T21:51:48.321Z,14.13
2022-08-26T21:54:16.537Z,13.07
2022-08-26T21:56:47.109Z,14.40
2022-08-26T21:59:17.281Z,14.35
2022-08-26T22:01:45.287Z,13.43
2022-08-26T22:04:16.241Z,13.13
2022-08-26T22:07:10.394Z,14.45
2022-08-26T22:09:37.955Z,13.68
2022-08-26T22:12:18.426Z,13.15
2022-08-26T22:14:49.368Z,13.50
2022-08-26T22:17:17.118Z,14.52
2022-08-26T22:19:46.223Z,13.82
2022-08-26T22:22:14.665Z,13.15
2022-08-26T22:24:43.385Z,12.50
2022-08-26T22:27:12.080Z,12.27
2022-08-26T22:29:39.857Z,13.73
2022-08-26T22:32:07.442Z,14.30
2022-08-26T22:34:37.582Z,15.20
2022-08-26T22:37:05.885Z,14.23
2022-08-26T22:39:34.286Z,15.25
2022-08-26T22:42:03.748Z,14.90
2022-08-26T22:44:32.276Z,15.10
2022-08-26T22:47:02.798Z,13.05
2022-08-26T22:49:30.333Z,14.73
2022-08-26T22:52:00.594Z,15.25
2022-08-26T22:54:28.254Z,13.45
2022-08-26T22:56:56.018Z,14.13
2022-08-26T22:59:23.587Z,13.57
2022-08-26T23:01:51.699Z,13.73
2022-08-26T23:04:19.455Z,13.52
2022-08-26T23:06:47.578Z,13.23
2022-08-26T23:09:18.229Z,13.50
2022-08-26T23:11:47.903Z,13.60
2022-08-26T23:14:17.091Z,13.07
2022-08-26T23:16:45.125Z,13.75
2022-08-26T23:19:14.498Z,13.43
2022-08-26T23:21:42.106Z,13.75
2022-08-26T23:24:10.688Z,13.55
2022-08-26T23:26:40.577Z,12.85
2022-08-26T23:29:10.931Z,14.15
2022-08-26T23:31:40.572Z,13.52
2022-08-26T23:34:26.648Z,13.45
2022-08-26T23:37:00.252Z,12.57
2022-08-26T23:39:33.529Z,14.68
2022-08-26T23:42:01.852Z,13.30
2022-08-26T23:44:30.965Z,12.35
2022-08-26T23:46:59.473Z,13.90
2022-08-26T23:49:28.112Z,12.52
2022-08-26T23:52:14.339Z,13.40
2022-08-26T23:54:42.325Z,13.33
2022-08-26T23:57:10.063Z,14.85
2022-08-26T23:59:40.249Z,14.27
